sensor_id;sensor_type;location;lat;lon;timestamp;temperature;humidity
14771;DHT22;7477;45.222;5.688;2023-08-21T00:00:02;27.80;74.50
14771;DHT22;7477;45.222;5.688;2023-08-21T00:03:23;27.80;74.80
14771;DHT22;7477;45.222;5.688;2023-08-21T00:06:42;27.70;74.90
14771;DHT22;7477;45.222;5.688;2023-08-21T00:10:03;27.70;74.50
14771;DHT22;7477;45.222;5.688;2023-08-21T00:13:23;27.70;75.10
14771;DHT22;7477;45.222;5.688;2023-08-21T00:16:42;27.70;75.40
14771;DHT22;7477;45.222;5.688;2023-08-21T00:20:01;27.60;75.40
14771;DHT22;7477;45.222;5.688;2023-08-21T00:23:21;27.50;75.90
14771;DHT22;7477;45.222;5.688;2023-08-21T00:26:40;27.50;75.70
14771;DHT22;7477;45.222;5.688;2023-08-21T00:30:00;27.40;76.10
14771;DHT22;7477;45.222;5.688;2023-08-21T00:33:20;27.40;76.50
14771;DHT22;7477;45.222;5.688;2023-08-21T00:36:39;27.30;76.60
14771;DHT22;7477;45.222;5.688;2023-08-21T00:39:58;27.30;76.30
14771;DHT22;7477;45.222;5.688;2023-08-21T00:43:18;27.30;76.40
14771;DHT22;7477;45.222;5.688;2023-08-21T00:46:37;27.20;76.10
14771;DHT22;7477;45.222;5.688;2023-08-21T00:49:56;27.20;75.90
14771;DHT22;7477;45.222;5.688;2023-08-21T00:53:16;27.10;76.90
14771;DHT22;7477;45.222;5.688;2023-08-21T00:56:35;27.10;77.30
14771;DHT22;7477;45.222;5.688;2023-08-21T00:59:54;27.00;77.20
14771;DHT22;7477;45.222;5.688;2023-08-21T01:03:13;27.00;77.30
14771;DHT22;7477;45.222;5.688;2023-08-21T01:06:32;26.90;77.30
14771;DHT22;7477;45.222;5.688;2023-08-21T01:10:04;26.90;77.20
14771;DHT22;7477;45.222;5.688;2023-08-21T01:14:03;26.80;77.50
14771;DHT22;7477;45.222;5.688;2023-08-21T01:17:26;26.80;77.60
14771;DHT22;7477;45.222;5.688;2023-08-21T01:20:47;26.80;77.50
14771;DHT22;7477;45.222;5.688;2023-08-21T01:24:07;26.80;77.80
14771;DHT22;7477;45.222;5.688;2023-08-21T01:27:26;26.70;77.80
14771;DHT22;7477;45.222;5.688;2023-08-21T01:30:46;26.70;78.20
14771;DHT22;7477;45.222;5.688;2023-08-21T01:34:08;26.70;77.90
14771;DHT22;7477;45.222;5.688;2023-08-21T01:37:31;26.60;77.60
14771;DHT22;7477;45.222;5.688;2023-08-21T01:40:50;26.60;78.30
14771;DHT22;7477;45.222;5.688;2023-08-21T01:44:09;26.50;78.80
14771;DHT22;7477;45.222;5.688;2023-08-21T01:47:28;26.40;79.30
14771;DHT22;7477;45.222;5.688;2023-08-21T01:50:47;26.40;79.90
14771;DHT22;7477;45.222;5.688;2023-08-21T01:54:06;26.40;79.50
14771;DHT22;7477;45.222;5.688;2023-08-21T01:57:25;26.30;79.80
14771;DHT22;7477;45.222;5.688;2023-08-21T02:00:48;26.30;80.10
14771;DHT22;7477;45.222;5.688;2023-08-21T02:04:08;26.20;80.20
14771;DHT22;7477;45.222;5.688;2023-08-21T02:07:27;26.20;80.40
14771;DHT22;7477;45.222;5.688;2023-08-21T02:10:50;26.10;81.10
14771;DHT22;7477;45.222;5.688;2023-08-21T02:14:09;26.10;81.50
14771;DHT22;7477;45.222;5.688;2023-08-21T02:17:30;26.10;81.50
14771;DHT22;7477;45.222;5.688;2023-08-21T02:20:49;26.10;82.00
14771;DHT22;7477;45.222;5.688;2023-08-21T02:24:08;26.00;82.30
14771;DHT22;7477;45.222;5.688;2023-08-21T02:27:28;26.00;82.90
14771;DHT22;7477;45.222;5.688;2023-08-21T02:30:47;25.90;83.50
14771;DHT22;7477;45.222;5.688;2023-08-21T02:34:06;25.80;83.40
14771;DHT22;7477;45.222;5.688;2023-08-21T02:37:25;25.80;83.60
14771;DHT22;7477;45.222;5.688;2023-08-21T02:40:44;25.80;83.30
14771;DHT22;7477;45.222;5.688;2023-08-21T02:44:04;25.70;83.20
14771;DHT22;7477;45.222;5.688;2023-08-21T02:47:23;25.70;83.50
14771;DHT22;7477;45.222;5.688;2023-08-21T02:50:42;25.70;83.70
14771;DHT22;7477;45.222;5.688;2023-08-21T02:54:02;25.60;84.00
14771;DHT22;7477;45.222;5.688;2023-08-21T02:57:22;25.60;84.40
14771;DHT22;7477;45.222;5.688;2023-08-21T03:00:41;25.60;84.50
14771;DHT22;7477;45.222;5.688;2023-08-21T03:04:02;25.50;84.20
14771;DHT22;7477;45.222;5.688;2023-08-21T03:07:21;25.50;84.10
14771;DHT22;7477;45.222;5.688;2023-08-21T03:10:43;25.40;83.80
14771;DHT22;7477;45.222;5.688;2023-08-21T03:14:02;25.40;84.10
14771;DHT22;7477;45.222;5.688;2023-08-21T03:17:21;25.40;84.00
14771;DHT22;7477;45.222;5.688;2023-08-21T03:20:46;25.40;83.40
14771;DHT22;7477;45.222;5.688;2023-08-21T03:24:06;25.30;83.50
14771;DHT22;7477;45.222;5.688;2023-08-21T03:27:26;25.30;83.80
14771;DHT22;7477;45.222;5.688;2023-08-21T03:30:45;25.30;83.90
14771;DHT22;7477;45.222;5.688;2023-08-21T03:34:04;25.20;83.30
14771;DHT22;7477;45.222;5.688;2023-08-21T03:37:24;25.20;83.40
14771;DHT22;7477;45.222;5.688;2023-08-21T03:40:43;25.30;83.20
14771;DHT22;7477;45.222;5.688;2023-08-21T03:44:02;25.30;82.60
14771;DHT22;7477;45.222;5.688;2023-08-21T03:47:21;25.30;82.10
14771;DHT22;7477;45.222;5.688;2023-08-21T03:50:40;25.40;80.90
14771;DHT22;7477;45.222;5.688;2023-08-21T03:53:59;25.50;80.30
14771;DHT22;7477;45.222;5.688;2023-08-21T03:57:18;25.50;80.00
14771;DHT22;7477;45.222;5.688;2023-08-21T04:00:37;25.50;79.50
14771;DHT22;7477;45.222;5.688;2023-08-21T04:03:56;25.50;79.50
14771;DHT22;7477;45.222;5.688;2023-08-21T04:07:15;25.40;79.80
14771;DHT22;7477;45.222;5.688;2023-08-21T04:10:34;25.40;80.20
14771;DHT22;7477;45.222;5.688;2023-08-21T04:13:53;25.30;80.40
14771;DHT22;7477;45.222;5.688;2023-08-21T04:17:12;25.30;80.80
14771;DHT22;7477;45.222;5.688;2023-08-21T04:20:32;25.20;81.30
14771;DHT22;7477;45.222;5.688;2023-08-21T04:23:51;25.20;81.50
14771;DHT22;7477;45.222;5.688;2023-08-21T04:27:10;25.10;81.80
14771;DHT22;7477;45.222;5.688;2023-08-21T04:30:30;25.10;82.20
14771;DHT22;7477;45.222;5.688;2023-08-21T04:33:49;25.10;82.80
14771;DHT22;7477;45.222;5.688;2023-08-21T04:37:09;25.10;83.20
14771;DHT22;7477;45.222;5.688;2023-08-21T04:40:28;25.00;83.80
14771;DHT22;7477;45.222;5.688;2023-08-21T04:43:47;24.90;83.70
14771;DHT22;7477;45.222;5.688;2023-08-21T04:47:25;24.90;83.40
14771;DHT22;7477;45.222;5.688;2023-08-21T04:50:45;24.90;84.00
14771;DHT22;7477;45.222;5.688;2023-08-21T04:54:05;24.80;83.90
14771;DHT22;7477;45.222;5.688;2023-08-21T04:57:24;24.90;83.10
14771;DHT22;7477;45.222;5.688;2023-08-21T05:00:47;24.80;83.10
14771;DHT22;7477;45.222;5.688;2023-08-21T05:04:06;24.80;82.60
14771;DHT22;7477;45.222;5.688;2023-08-21T05:07:25;24.90;82.00
14771;DHT22;7477;45.222;5.688;2023-08-21T05:10:46;24.90;82.20
14771;DHT22;7477;45.222;5.688;2023-08-21T05:14:05;24.80;82.50
14771;DHT22;7477;45.222;5.688;2023-08-21T05:17:24;24.80;82.80
14771;DHT22;7477;45.222;5.688;2023-08-21T05:20:46;24.80;83.40
14771;DHT22;7477;45.222;5.688;2023-08-21T05:24:05;24.70;83.60
14771;DHT22;7477;45.222;5.688;2023-08-21T05:27:24;24.70;83.50
14771;DHT22;7477;45.222;5.688;2023-08-21T05:30:43;24.70;83.40
14771;DHT22;7477;45.222;5.688;2023-08-21T05:34:05;24.70;83.30
14771;DHT22;7477;45.222;5.688;2023-08-21T05:37:24;24.70;83.70
14771;DHT22;7477;45.222;5.688;2023-08-21T05:40:43;24.80;83.70
14771;DHT22;7477;45.222;5.688;2023-08-21T05:44:02;24.80;83.40
14771;DHT22;7477;45.222;5.688;2023-08-21T05:47:22;24.80;83.20
14771;DHT22;7477;45.222;5.688;2023-08-21T05:50:43;24.90;82.60
14771;DHT22;7477;45.222;5.688;2023-08-21T05:54:03;24.90;82.60
14771;DHT22;7477;45.222;5.688;2023-08-21T05:57:22;24.90;81.90
14771;DHT22;7477;45.222;5.688;2023-08-21T06:00:41;24.90;82.10
14771;DHT22;7477;45.222;5.688;2023-08-21T06:04:01;24.80;82.00
14771;DHT22;7477;45.222;5.688;2023-08-21T06:07:20;24.80;82.10
14771;DHT22;7477;45.222;5.688;2023-08-21T06:10:39;24.80;82.50
14771;DHT22;7477;45.222;5.688;2023-08-21T06:13:58;24.70;83.40
14771;DHT22;7477;45.222;5.688;2023-08-21T06:17:17;24.70;83.70
14771;DHT22;7477;45.222;5.688;2023-08-21T06:20:37;24.70;83.70
14771;DHT22;7477;45.222;5.688;2023-08-21T06:23:56;24.70;83.40
14771;DHT22;7477;45.222;5.688;2023-08-21T06:27:15;24.70;83.30
14771;DHT22;7477;45.222;5.688;2023-08-21T06:30:35;24.80;83.50
14771;DHT22;7477;45.222;5.688;2023-08-21T06:33:54;24.80;83.80
14771;DHT22;7477;45.222;5.688;2023-08-21T06:37:13;24.80;84.10
14771;DHT22;7477;45.222;5.688;2023-08-21T06:40:33;24.80;84.50
14771;DHT22;7477;45.222;5.688;2023-08-21T06:43:52;24.80;84.90
14771;DHT22;7477;45.222;5.688;2023-08-21T06:47:11;24.80;85.00
14771;DHT22;7477;45.222;5.688;2023-08-21T06:50:31;24.80;84.80
14771;DHT22;7477;45.222;5.688;2023-08-21T06:53:50;24.80;85.70
14771;DHT22;7477;45.222;5.688;2023-08-21T06:57:09;24.80;85.90
14771;DHT22;7477;45.222;5.688;2023-08-21T07:00:28;24.80;86.50
14771;DHT22;7477;45.222;5.688;2023-08-21T07:03:48;24.90;85.20
14771;DHT22;7477;45.222;5.688;2023-08-21T07:07:07;24.90;84.90
14771;DHT22;7477;45.222;5.688;2023-08-21T07:10:26;24.90;84.60
14771;DHT22;7477;45.222;5.688;2023-08-21T07:13:45;25.00;85.10
14771;DHT22;7477;45.222;5.688;2023-08-21T07:17:04;25.00;85.00
14771;DHT22;7477;45.222;5.688;2023-08-21T07:20:23;25.00;84.50
14771;DHT22;7477;45.222;5.688;2023-08-21T07:23:42;25.00;85.10
14771;DHT22;7477;45.222;5.688;2023-08-21T07:27:01;25.10;84.30
14771;DHT22;7477;45.222;5.688;2023-08-21T07:30:21;25.30;83.90
14771;DHT22;7477;45.222;5.688;2023-08-21T07:33:44;25.40;83.90
14771;DHT22;7477;45.222;5.688;2023-08-21T07:37:03;25.40;83.40
14771;DHT22;7477;45.222;5.688;2023-08-21T07:40:22;25.50;83.70
14771;DHT22;7477;45.222;5.688;2023-08-21T07:43:43;25.60;83.20
14771;DHT22;7477;45.222;5.688;2023-08-21T07:47:03;25.80;82.50
14771;DHT22;7477;45.222;5.688;2023-08-21T07:50:22;25.70;83.60
14771;DHT22;7477;45.222;5.688;2023-08-21T07:53:42;25.80;83.10
14771;DHT22;7477;45.222;5.688;2023-08-21T07:57:01;25.80;82.10
14771;DHT22;7477;45.222;5.688;2023-08-21T08:00:23;26.00;81.70
14771;DHT22;7477;45.222;5.688;2023-08-21T08:03:42;26.10;81.40
14771;DHT22;7477;45.222;5.688;2023-08-21T08:07:01;26.10;80.80
14771;DHT22;7477;45.222;5.688;2023-08-21T08:10:20;26.20;80.40
14771;DHT22;7477;45.222;5.688;2023-08-21T08:13:39;26.20;80.50
14771;DHT22;7477;45.222;5.688;2023-08-21T08:16:58;26.20;80.10
14771;DHT22;7477;45.222;5.688;2023-08-21T08:20:18;26.20;79.80
14771;DHT22;7477;45.222;5.688;2023-08-21T08:23:37;26.30;79.90
14771;DHT22;7477;45.222;5.688;2023-08-21T08:26:57;26.40;79.40
14771;DHT22;7477;45.222;5.688;2023-08-21T08:30:16;26.40;79.30
14771;DHT22;7477;45.222;5.688;2023-08-21T08:33:35;26.40;79.70
14771;DHT22;7477;45.222;5.688;2023-08-21T08:36:54;26.40;79.60
14771;DHT22;7477;45.222;5.688;2023-08-21T08:40:13;26.40;79.40
14771;DHT22;7477;45.222;5.688;2023-08-21T08:43:35;26.50;79.50
14771;DHT22;7477;45.222;5.688;2023-08-21T08:46:56;26.60;79.50
14771;DHT22;7477;45.222;5.688;2023-08-21T08:50:17;26.60;79.30
14771;DHT22;7477;45.222;5.688;2023-08-21T08:53:36;26.60;79.20
14771;DHT22;7477;45.222;5.688;2023-08-21T08:56:56;26.60;79.30
14771;DHT22;7477;45.222;5.688;2023-08-21T09:00:15;26.70;79.20
14771;DHT22;7477;45.222;5.688;2023-08-21T09:03:35;26.60;79.30
14771;DHT22;7477;45.222;5.688;2023-08-21T09:07:08;26.60;79.00
14771;DHT22;7477;45.222;5.688;2023-08-21T09:10:27;26.60;79.30
14771;DHT22;7477;45.222;5.688;2023-08-21T09:13:51;26.60;78.90
14771;DHT22;7477;45.222;5.688;2023-08-21T09:17:11;26.70;79.20
14771;DHT22;7477;45.222;5.688;2023-08-21T09:20:37;26.70;79.60
14771;DHT22;7477;45.222;5.688;2023-08-21T09:24:02;26.80;79.70
14771;DHT22;7477;45.222;5.688;2023-08-21T09:27:24;26.80;79.80
14771;DHT22;7477;45.222;5.688;2023-08-21T09:30:51;26.80;79.60
14771;DHT22;7477;45.222;5.688;2023-08-21T09:34:10;26.80;79.80
14771;DHT22;7477;45.222;5.688;2023-08-21T09:37:29;26.80;79.80
14771;DHT22;7477;45.222;5.688;2023-08-21T09:40:53;26.80;79.50
14771;DHT22;7477;45.222;5.688;2023-08-21T09:44:13;27.00;79.30
14771;DHT22;7477;45.222;5.688;2023-08-21T09:47:33;27.00;79.70
14771;DHT22;7477;45.222;5.688;2023-08-21T09:50:52;27.00;78.50
14771;DHT22;7477;45.222;5.688;2023-08-21T09:54:12;27.00;79.80
14771;DHT22;7477;45.222;5.688;2023-08-21T09:57:31;27.00;79.40
14771;DHT22;7477;45.222;5.688;2023-08-21T10:00:52;26.90;79.90
14771;DHT22;7477;45.222;5.688;2023-08-21T10:04:16;26.90;80.30
14771;DHT22;7477;45.222;5.688;2023-08-21T10:07:36;26.90;80.40
14771;DHT22;7477;45.222;5.688;2023-08-21T10:10:56;27.00;80.60
14771;DHT22;7477;45.222;5.688;2023-08-21T10:14:16;27.00;78.80
14771;DHT22;7477;45.222;5.688;2023-08-21T10:17:37;27.20;79.40
14771;DHT22;7477;45.222;5.688;2023-08-21T10:21:13;27.90;75.50
14771;DHT22;7477;45.222;5.688;2023-08-21T10:24:35;29.20;70.70
14771;DHT22;7477;45.222;5.688;2023-08-21T10:27:56;29.50;70.20
14771;DHT22;7477;45.222;5.688;2023-08-21T10:31:31;29.60;70.10
14771;DHT22;7477;45.222;5.688;2023-08-21T10:34:53;29.90;69.30
14771;DHT22;7477;45.222;5.688;2023-08-21T10:38:17;29.90;67.80
14771;DHT22;7477;45.222;5.688;2023-08-21T10:41:37;30.00;67.30
14771;DHT22;7477;45.222;5.688;2023-08-21T10:44:56;30.10;67.80
14771;DHT22;7477;45.222;5.688;2023-08-21T10:48:18;30.20;65.90
14771;DHT22;7477;45.222;5.688;2023-08-21T10:51:37;30.40;65.60
14771;DHT22;7477;45.222;5.688;2023-08-21T10:55:00;30.40;67.60
14771;DHT22;7477;45.222;5.688;2023-08-21T10:58:20;30.80;65.00
14771;DHT22;7477;45.222;5.688;2023-08-21T11:01:45;30.70;63.80
14771;DHT22;7477;45.222;5.688;2023-08-21T11:05:05;29.40;69.00
14771;DHT22;7477;45.222;5.688;2023-08-21T11:08:26;30.60;68.10
14771;DHT22;7477;45.222;5.688;2023-08-21T11:11:47;31.00;66.70
14771;DHT22;7477;45.222;5.688;2023-08-21T11:15:06;31.10;65.10
14771;DHT22;7477;45.222;5.688;2023-08-21T11:18:32;31.20;65.90
14771;DHT22;7477;45.222;5.688;2023-08-21T11:21:53;31.40;66.80
14771;DHT22;7477;45.222;5.688;2023-08-21T11:25:13;31.40;66.80
14771;DHT22;7477;45.222;5.688;2023-08-21T11:28:33;31.60;68.40
14771;DHT22;7477;45.222;5.688;2023-08-21T11:31:52;31.20;68.30
14771;DHT22;7477;45.222;5.688;2023-08-21T11:35:12;31.20;70.10
14771;DHT22;7477;45.222;5.688;2023-08-21T11:38:31;31.90;68.90
14771;DHT22;7477;45.222;5.688;2023-08-21T11:41:57;32.00;69.30
14771;DHT22;7477;45.222;5.688;2023-08-21T11:45:20;32.20;68.60
14771;DHT22;7477;45.222;5.688;2023-08-21T11:48:41;32.20;69.60
14771;DHT22;7477;45.222;5.688;2023-08-21T11:52:00;32.30;68.30
14771;DHT22;7477;45.222;5.688;2023-08-21T11:55:21;32.50;68.70
14771;DHT22;7477;45.222;5.688;2023-08-21T11:58:43;32.50;68.30
14771;DHT22;7477;45.222;5.688;2023-08-21T12:02:14;32.60;67.90
14771;DHT22;7477;45.222;5.688;2023-08-21T12:05:34;32.50;68.60
14771;DHT22;7477;45.222;5.688;2023-08-21T12:08:53;32.50;68.30
14771;DHT22;7477;45.222;5.688;2023-08-21T12:12:13;32.70;68.00
14771;DHT22;7477;45.222;5.688;2023-08-21T12:15:32;32.80;67.60
14771;DHT22;7477;45.222;5.688;2023-08-21T12:18:52;32.90;67.20
14771;DHT22;7477;45.222;5.688;2023-08-21T12:22:13;33.00;66.70
14771;DHT22;7477;45.222;5.688;2023-08-21T12:25:32;32.50;67.90
14771;DHT22;7477;45.222;5.688;2023-08-21T12:28:52;32.90;67.10
14771;DHT22;7477;45.222;5.688;2023-08-21T12:32:11;33.20;67.00
14771;DHT22;7477;45.222;5.688;2023-08-21T12:35:30;33.50;66.10
14771;DHT22;7477;45.222;5.688;2023-08-21T12:38:50;32.90;67.00
14771;DHT22;7477;45.222;5.688;2023-08-21T12:42:09;32.60;69.80
14771;DHT22;7477;45.222;5.688;2023-08-21T12:45:28;33.50;66.00
14771;DHT22;7477;45.222;5.688;2023-08-21T12:48:47;33.70;65.20
14771;DHT22;7477;45.222;5.688;2023-08-21T12:52:06;34.00;63.70
14771;DHT22;7477;45.222;5.688;2023-08-21T12:55:27;34.00;64.60
14771;DHT22;7477;45.222;5.688;2023-08-21T12:58:47;33.80;64.70
14771;DHT22;7477;45.222;5.688;2023-08-21T13:02:07;33.90;64.70
14771;DHT22;7477;45.222;5.688;2023-08-21T13:05:26;34.10;63.10
14771;DHT22;7477;45.222;5.688;2023-08-21T13:08:45;34.30;63.10
14771;DHT22;7477;45.222;5.688;2023-08-21T13:12:05;34.20;62.30
14771;DHT22;7477;45.222;5.688;2023-08-21T13:15:24;34.10;62.20
14771;DHT22;7477;45.222;5.688;2023-08-21T13:18:43;34.40;60.60
14771;DHT22;7477;45.222;5.688;2023-08-21T13:22:02;34.50;59.10
14771;DHT22;7477;45.222;5.688;2023-08-21T13:25:23;34.10;60.00
14771;DHT22;7477;45.222;5.688;2023-08-21T13:28:45;33.80;60.70
14771;DHT22;7477;45.222;5.688;2023-08-21T13:32:05;34.50;59.80
14771;DHT22;7477;45.222;5.688;2023-08-21T13:35:24;34.70;57.90
14771;DHT22;7477;45.222;5.688;2023-08-21T13:38:43;34.30;58.90
14771;DHT22;7477;45.222;5.688;2023-08-21T13:42:03;34.30;57.90
14771;DHT22;7477;45.222;5.688;2023-08-21T13:45:23;34.90;57.80
14771;DHT22;7477;45.222;5.688;2023-08-21T13:48:42;35.00;57.80
14771;DHT22;7477;45.222;5.688;2023-08-21T13:52:02;34.40;58.60
14771;DHT22;7477;45.222;5.688;2023-08-21T13:55:22;34.50;57.00
14771;DHT22;7477;45.222;5.688;2023-08-21T13:58:41;35.00;56.80
14771;DHT22;7477;45.222;5.688;2023-08-21T14:02:00;35.20;56.80
14771;DHT22;7477;45.222;5.688;2023-08-21T14:05:19;34.60;57.40
14771;DHT22;7477;45.222;5.688;2023-08-21T14:08:38;34.90;56.00
14771;DHT22;7477;45.222;5.688;2023-08-21T14:11:58;35.50;57.00
14771;DHT22;7477;45.222;5.688;2023-08-21T14:15:17;35.70;57.30
14771;DHT22;7477;45.222;5.688;2023-08-21T14:18:40;35.80;56.50
14771;DHT22;7477;45.222;5.688;2023-08-21T14:21:59;35.80;56.10
14771;DHT22;7477;45.222;5.688;2023-08-21T14:25:18;35.80;56.60
14771;DHT22;7477;45.222;5.688;2023-08-21T14:28:37;36.20;54.60
14771;DHT22;7477;45.222;5.688;2023-08-21T14:31:58;36.30;54.00
14771;DHT22;7477;45.222;5.688;2023-08-21T14:35:18;36.20;54.40
14771;DHT22;7477;45.222;5.688;2023-08-21T14:38:37;36.20;55.60
14771;DHT22;7477;45.222;5.688;2023-08-21T14:41:57;36.50;53.90
14771;DHT22;7477;45.222;5.688;2023-08-21T14:45:17;36.60;54.20
14771;DHT22;7477;45.222;5.688;2023-08-21T14:48:37;36.50;53.20
14771;DHT22;7477;45.222;5.688;2023-08-21T14:51:56;36.40;53.80
14771;DHT22;7477;45.222;5.688;2023-08-21T14:55:15;36.80;52.50
14771;DHT22;7477;45.222;5.688;2023-08-21T14:58:35;36.80;53.10
14771;DHT22;7477;45.222;5.688;2023-08-21T15:01:54;36.80;52.80
14771;DHT22;7477;45.222;5.688;2023-08-21T15:05:14;36.70;52.20
14771;DHT22;7477;45.222;5.688;2023-08-21T15:08:38;37.00;52.00
14771;DHT22;7477;45.222;5.688;2023-08-21T15:11:58;37.10;50.60
14771;DHT22;7477;45.222;5.688;2023-08-21T15:15:17;37.30;52.50
14771;DHT22;7477;45.222;5.688;2023-08-21T15:18:38;37.10;50.30
14771;DHT22;7477;45.222;5.688;2023-08-21T15:21:58;37.10;49.30
14771;DHT22;7477;45.222;5.688;2023-08-21T15:25:17;37.30;48.70
14771;DHT22;7477;45.222;5.688;2023-08-21T15:28:36;37.30;48.90
14771;DHT22;7477;45.222;5.688;2023-08-21T15:31:56;37.10;49.40
14771;DHT22;7477;45.222;5.688;2023-08-21T15:35:15;37.30;49.40
14771;DHT22;7477;45.222;5.688;2023-08-21T15:38:35;37.60;48.90
14771;DHT22;7477;45.222;5.688;2023-08-21T15:41:54;37.80;49.30
14771;DHT22;7477;45.222;5.688;2023-08-21T15:45:13;37.90;49.60
14771;DHT22;7477;45.222;5.688;2023-08-21T15:48:33;37.90;48.70
14771;DHT22;7477;45.222;5.688;2023-08-21T15:51:53;37.70;48.00
14771;DHT22;7477;45.222;5.688;2023-08-21T15:55:12;37.80;48.40
14771;DHT22;7477;45.222;5.688;2023-08-21T15:58:31;37.70;49.40
14771;DHT22;7477;45.222;5.688;2023-08-21T16:01:50;37.80;49.50
14771;DHT22;7477;45.222;5.688;2023-08-21T16:05:10;37.30;50.20
14771;DHT22;7477;45.222;5.688;2023-08-21T16:08:29;37.30;50.20
14771;DHT22;7477;45.222;5.688;2023-08-21T16:11:48;38.00;48.80
14771;DHT22;7477;45.222;5.688;2023-08-21T16:15:07;38.10;48.80
14771;DHT22;7477;45.222;5.688;2023-08-21T16:18:27;37.50;49.60
14771;DHT22;7477;45.222;5.688;2023-08-21T16:21:46;37.40;49.90
14771;DHT22;7477;45.222;5.688;2023-08-21T16:25:07;38.10;48.40
14771;DHT22;7477;45.222;5.688;2023-08-21T16:28:26;37.90;48.70
14771;DHT22;7477;45.222;5.688;2023-08-21T16:31:45;37.90;48.40
14771;DHT22;7477;45.222;5.688;2023-08-21T16:35:05;37.70;49.20
14771;DHT22;7477;45.222;5.688;2023-08-21T16:38:25;37.70;49.70
14771;DHT22;7477;45.222;5.688;2023-08-21T16:41:44;37.20;49.90
14771;DHT22;7477;45.222;5.688;2023-08-21T16:45:04;36.80;51.20
14771;DHT22;7477;45.222;5.688;2023-08-21T16:48:24;36.60;51.00
14771;DHT22;7477;45.222;5.688;2023-08-21T16:51:43;36.40;50.90
14771;DHT22;7477;45.222;5.688;2023-08-21T16:55:02;36.40;50.60
14771;DHT22;7477;45.222;5.688;2023-08-21T16:58:22;36.30;51.20
14771;DHT22;7477;45.222;5.688;2023-08-21T17:01:41;36.10;50.80
14771;DHT22;7477;45.222;5.688;2023-08-21T17:05:00;36.00;51.10
14771;DHT22;7477;45.222;5.688;2023-08-21T17:08:23;36.00;51.80
14771;DHT22;7477;45.222;5.688;2023-08-21T17:11:42;35.90;52.10
14771;DHT22;7477;45.222;5.688;2023-08-21T17:15:02;35.80;52.40
14771;DHT22;7477;45.222;5.688;2023-08-21T17:18:22;35.70;52.30
14771;DHT22;7477;45.222;5.688;2023-08-21T17:21:41;35.60;52.50
14771;DHT22;7477;45.222;5.688;2023-08-21T17:25:00;35.50;52.40
14771;DHT22;7477;45.222;5.688;2023-08-21T17:28:20;35.40;53.00
14771;DHT22;7477;45.222;5.688;2023-08-21T17:31:39;35.20;53.10
14771;DHT22;7477;45.222;5.688;2023-08-21T17:34:58;35.10;53.80
14771;DHT22;7477;45.222;5.688;2023-08-21T17:38:17;34.90;52.50
14771;DHT22;7477;45.222;5.688;2023-08-21T17:41:36;34.80;52.20
14771;DHT22;7477;45.222;5.688;2023-08-21T17:44:56;34.70;52.60
14771;DHT22;7477;45.222;5.688;2023-08-21T17:48:15;34.60;52.80
14771;DHT22;7477;45.222;5.688;2023-08-21T17:51:34;34.60;52.90
14771;DHT22;7477;45.222;5.688;2023-08-21T17:54:53;34.50;52.80
14771;DHT22;7477;45.222;5.688;2023-08-21T17:58:13;34.40;53.40
14771;DHT22;7477;45.222;5.688;2023-08-21T18:01:32;34.30;53.30
14771;DHT22;7477;45.222;5.688;2023-08-21T18:04:52;34.30;53.50
14771;DHT22;7477;45.222;5.688;2023-08-21T18:08:11;34.30;53.50
14771;DHT22;7477;45.222;5.688;2023-08-21T18:11:30;34.10;53.70
14771;DHT22;7477;45.222;5.688;2023-08-21T18:14:49;34.10;54.80
14771;DHT22;7477;45.222;5.688;2023-08-21T18:18:09;33.70;57.30
14771;DHT22;7477;45.222;5.688;2023-08-21T18:21:28;33.80;55.60
14771;DHT22;7477;45.222;5.688;2023-08-21T18:24:47;33.90;56.30
14771;DHT22;7477;45.222;5.688;2023-08-21T18:28:06;33.80;56.30
14771;DHT22;7477;45.222;5.688;2023-08-21T18:31:25;33.80;56.00
14771;DHT22;7477;45.222;5.688;2023-08-21T18:34:44;33.70;56.30
14771;DHT22;7477;45.222;5.688;2023-08-21T18:38:04;33.50;56.50
14771;DHT22;7477;45.222;5.688;2023-08-21T18:41:28;33.40;55.60
14771;DHT22;7477;45.222;5.688;2023-08-21T18:44:47;33.20;56.20
14771;DHT22;7477;45.222;5.688;2023-08-21T18:48:06;33.20;56.50
14771;DHT22;7477;45.222;5.688;2023-08-21T18:51:26;33.20;56.50
14771;DHT22;7477;45.222;5.688;2023-08-21T18:54:45;33.20;56.90
14771;DHT22;7477;45.222;5.688;2023-08-21T18:58:04;33.00;56.40
14771;DHT22;7477;45.222;5.688;2023-08-21T19:01:24;32.90;57.20
14771;DHT22;7477;45.222;5.688;2023-08-21T19:04:43;32.90;56.70
14771;DHT22;7477;45.222;5.688;2023-08-21T19:08:02;32.90;56.80
14771;DHT22;7477;45.222;5.688;2023-08-21T19:11:22;32.70;57.50
14771;DHT22;7477;45.222;5.688;2023-08-21T19:14:43;32.70;57.10
14771;DHT22;7477;45.222;5.688;2023-08-21T19:18:02;32.70;57.40
14771;DHT22;7477;45.222;5.688;2023-08-21T19:21:22;32.60;57.80
14771;DHT22;7477;45.222;5.688;2023-08-21T19:24:44;32.40;58.30
14771;DHT22;7477;45.222;5.688;2023-08-21T19:28:03;32.40;58.30
14771;DHT22;7477;45.222;5.688;2023-08-21T19:31:22;32.30;58.30
14771;DHT22;7477;45.222;5.688;2023-08-21T19:34:41;32.20;58.80
14771;DHT22;7477;45.222;5.688;2023-08-21T19:38:00;32.20;58.60
14771;DHT22;7477;45.222;5.688;2023-08-21T19:41:20;32.30;58.60
14771;DHT22;7477;45.222;5.688;2023-08-21T19:44:40;32.20;58.90
14771;DHT22;7477;45.222;5.688;2023-08-21T19:47:59;32.30;59.00
14771;DHT22;7477;45.222;5.688;2023-08-21T19:51:18;32.40;58.80
14771;DHT22;7477;45.222;5.688;2023-08-21T19:54:38;32.20;59.30
14771;DHT22;7477;45.222;5.688;2023-08-21T19:57:58;32.00;59.70
14771;DHT22;7477;45.222;5.688;2023-08-21T20:01:18;32.10;59.60
14771;DHT22;7477;45.222;5.688;2023-08-21T20:04:37;31.90;60.40
14771;DHT22;7477;45.222;5.688;2023-08-21T20:07:56;31.70;61.00
14771;DHT22;7477;45.222;5.688;2023-08-21T20:11:15;31.60;61.50
14771;DHT22;7477;45.222;5.688;2023-08-21T20:14:35;31.70;61.20
14771;DHT22;7477;45.222;5.688;2023-08-21T20:17:54;31.60;61.60
14771;DHT22;7477;45.222;5.688;2023-08-21T20:21:13;31.40;61.90
14771;DHT22;7477;45.222;5.688;2023-08-21T20:24:35;31.40;62.10
14771;DHT22;7477;45.222;5.688;2023-08-21T20:27:54;31.40;62.40
14771;DHT22;7477;45.222;5.688;2023-08-21T20:31:13;31.30;62.60
14771;DHT22;7477;45.222;5.688;2023-08-21T20:34:33;31.30;62.80
14771;DHT22;7477;45.222;5.688;2023-08-21T20:37:52;31.10;63.40
14771;DHT22;7477;45.222;5.688;2023-08-21T20:41:11;31.00;63.90
14771;DHT22;7477;45.222;5.688;2023-08-21T20:44:31;31.00;63.60
14771;DHT22;7477;45.222;5.688;2023-08-21T20:47:50;30.90;63.80
14771;DHT22;7477;45.222;5.688;2023-08-21T20:51:09;31.00;63.80
14771;DHT22;7477;45.222;5.688;2023-08-21T20:54:29;30.90;64.00
14771;DHT22;7477;45.222;5.688;2023-08-21T20:57:48;30.80;64.30
14771;DHT22;7477;45.222;5.688;2023-08-21T21:01:08;30.80;64.70
14771;DHT22;7477;45.222;5.688;2023-08-21T21:04:28;30.80;64.80
14771;DHT22;7477;45.222;5.688;2023-08-21T21:07:47;30.80;64.90
14771;DHT22;7477;45.222;5.688;2023-08-21T21:11:06;30.80;65.10
14771;DHT22;7477;45.222;5.688;2023-08-21T21:14:26;30.70;65.20
14771;DHT22;7477;45.222;5.688;2023-08-21T21:17:45;30.60;65.60
14771;DHT22;7477;45.222;5.688;2023-08-21T21:21:04;30.50;66.30